Time;durP1;ratioP1;P1;durP2;ratioP2;P2;SDS_P1;SDS_P2;PMS_P1;PMS_P2;Temp;Humidity;BMP_temperature;BMP_pressure;BME280_temperature;BME280_humidity;BME280_pressure;Samples;Min_cycle;Max_cycle;Signal;HPM_P1;HPM_P2
2021/08/13 00:01:01;;;;;;;;;14.00;11.33;;;;;;;;5064805;28;46306;-89
2021/08/13 00:03:26;;;;;;;;;8.33;8.33;;;;;;;;5067275;28;45390;-89
2021/08/13 00:05:52;;;;;;;;;12.00;11.00;;;;;;;;5069037;28;45825;-89
2021/08/13 00:08:17;;;;;;;;;10.67;10.00;;;;;;;;5064343;28;45541;-88
2021/08/13 00:10:42;;;;;;;;;10.33;9.33;;;;;;;;5066400;27;45643;-89
2021/08/13 00:13:07;;;;;;;;;10.75;8.25;;;;;;;;5058025;28;45336;-89
2021/08/13 00:15:33;;;;;;;;;13.50;10.75;;;;;;;;5054638;28;45557;-89
2021/08/13 00:17:58;;;;;;;;;15.75;9.50;;;;;;;;5067217;28;45959;-89
2021/08/13 00:20:24;;;;;;;;;10.33;9.00;;;;;;;;5060949;28;45919;-89
2021/08/13 00:22:50;;;;;;;;;8.33;8.33;;;;;;;;5060758;28;48256;-88
2021/08/13 00:25:15;;;;;;;;;10.50;9.50;;;;;;;;5060645;27;45410;-88
2021/08/13 00:27:41;;;;;;;;;12.75;10.25;;;;;;;;5059189;28;45574;-89
2021/08/13 00:30:06;;;;;;;;;9.00;9.00;;;;;;;;5073469;27;45889;-87
2021/08/13 00:32:32;;;;;;;;;10.00;9.25;;;;;;;;5066572;28;45422;-89
2021/08/13 00:34:57;;;;;;;;;11.67;9.67;;;;;;;;5063025;28;45632;-89
2021/08/13 00:37:22;;;;;;;;;12.00;8.00;;;;;;;;5061809;28;45556;-89
2021/08/13 00:39:47;;;;;;;;;9.33;9.33;;;;;;;;5069100;28;46292;-89
2021/08/13 00:42:12;;;;;;;;;8.67;7.00;;;;;;;;5070339;28;45648;-89
2021/08/13 00:44:38;;;;;;;;;9.67;8.33;;;;;;;;5071140;27;45493;-89
2021/08/13 00:47:03;;;;;;;;;9.50;9.25;;;;;;;;5033961;28;45636;-89
2021/08/13 00:49:28;;;;;;;;;9.00;8.00;;;;;;;;5041264;28;47244;-89
2021/08/13 00:51:53;;;;;;;;;11.67;9.00;;;;;;;;4966257;28;45454;-89
2021/08/13 00:54:19;;;;;;;;;10.00;9.00;;;;;;;;4959826;28;45486;-89
2021/08/13 00:56:45;;;;;;;;;9.75;9.75;;;;;;;;4965099;28;45403;-89
2021/08/13 00:59:10;;;;;;;;;9.00;9.00;;;;;;;;4964117;28;45804;-89
2021/08/13 01:01:36;;;;;;;;;11.75;8.50;;;;;;;;4964367;28;45579;-89
2021/08/13 01:04:02;;;;;;;;;10.00;8.00;;;;;;;;4968405;28;45193;-89
2021/08/13 01:06:27;;;;;;;;;8.50;7.75;;;;;;;;4969507;28;45428;-89
2021/08/13 01:08:52;;;;;;;;;9.50;8.25;;;;;;;;4969680;28;45497;-89
2021/08/13 01:11:23;;;;;;;;;9.00;8.00;;;;;;;;5035823;28;45453;-89
2021/08/13 01:14:07;;;;;;;;;10.50;9.00;;;;;;;;4961673;28;45690;-88
2021/08/13 01:16:33;;;;;;;;;7.50;7.50;;;;;;;;4965836;28;45549;-89
2021/08/13 01:19:01;;;;;;;;;10.00;9.50;;;;;;;;5028412;28;47626;-89
2021/08/13 01:21:32;;;;;;;;;9.50;8.00;;;;;;;;4960484;28;45487;-89
2021/08/13 01:24:11;;;;;;;;;9.50;8.75;;;;;;;;5027000;28;45696;-89
2021/08/13 01:26:40;;;;;;;;;9.75;6.75;;;;;;;;5034509;28;45499;-89
2021/08/13 01:29:06;;;;;;;;;11.50;9.00;;;;;;;;4963161;28;46532;-89
2021/08/13 01:31:37;;;;;;;;;9.00;7.67;;;;;;;;4960573;28;45904;-90
2021/08/13 01:34:04;;;;;;;;;8.50;6.75;;;;;;;;4969935;28;45504;-89
2021/08/13 01:36:31;;;;;;;;;7.00;7.00;;;;;;;;4957179;28;45397;-89
2021/08/13 01:39:01;;;;;;;;;9.00;9.00;;;;;;;;5035179;28;47585;-89
2021/08/13 01:41:27;;;;;;;;;12.75;10.00;;;;;;;;5032781;28;45741;-89
2021/08/13 01:43:52;;;;;;;;;10.50;8.75;;;;;;;;5029039;28;45290;-89
2021/08/13 01:46:18;;;;;;;;;10.00;9.50;;;;;;;;5032766;28;46158;-89
2021/08/13 01:48:43;;;;;;;;;12.00;9.00;;;;;;;;5055859;28;47178;-89
2021/08/13 01:51:14;;;;;;;;;10.00;10.00;;;;;;;;5073008;28;45497;-89
2021/08/13 01:53:40;;;;;;;;;9.50;8.00;;;;;;;;5045376;28;45615;-90
2021/08/13 01:56:05;;;;;;;;;12.50;7.25;;;;;;;;5064782;27;45241;-89
2021/08/13 01:58:33;;;;;;;;;10.25;8.50;;;;;;;;5068155;27;45955;-90
2021/08/13 02:00:58;;;;;;;;;7.25;7.25;;;;;;;;5065784;27;45469;-89
2021/08/13 02:03:24;;;;;;;;;10.00;9.00;;;;;;;;5072460;28;45367;-90
2021/08/13 02:05:52;;;;;;;;;10.33;10.33;;;;;;;;5069431;28;45649;-90
2021/08/13 02:08:17;;;;;;;;;10.00;10.00;;;;;;;;5066728;28;46121;-89
2021/08/13 02:10:44;;;;;;;;;11.50;9.75;;;;;;;;5051482;28;45992;-89
2021/08/13 02:13:10;;;;;;;;;7.50;7.50;;;;;;;;5078474;28;45398;-89
2021/08/13 02:15:37;;;;;;;;;10.00;9.00;;;;;;;;5076145;27;45405;-90
2021/08/13 02:18:02;;;;;;;;;10.25;8.50;;;;;;;;5039307;28;50699;-90
2021/08/13 02:20:29;;;;;;;;;7.75;7.75;;;;;;;;5047627;28;45681;-90
2021/08/13 02:22:54;;;;;;;;;9.25;8.25;;;;;;;;5074066;28;45619;-89
2021/08/13 02:25:19;;;;;;;;;12.00;8.00;;;;;;;;5070886;28;45677;-89
2021/08/13 02:27:44;;;;;;;;;9.50;8.25;;;;;;;;5067005;27;45993;-89
2021/08/13 02:30:10;;;;;;;;;13.00;9.50;;;;;;;;5069995;28;45582;-90
2021/08/13 02:32:35;;;;;;;;;11.25;9.00;;;;;;;;5065838;28;45401;-89
2021/08/13 02:35:01;;;;;;;;;11.00;8.00;;;;;;;;5077373;27;45882;-90
2021/08/13 02:37:29;;;;;;;;;9.00;6.75;;;;;;;;5071371;28;46226;-89
2021/08/13 02:39:56;;;;;;;;;8.00;8.00;;;;;;;;5074220;28;45753;-88
2021/08/13 02:42:25;;;;;;;;;11.25;8.25;;;;;;;;5047348;28;45451;-89
2021/08/13 02:44:53;;;;;;;;;9.25;8.75;;;;;;;;5049129;28;45528;-90
2021/08/13 02:47:20;;;;;;;;;8.50;7.25;;;;;;;;5062409;28;47359;-89
2021/08/13 02:49:50;;;;;;;;;10.00;9.00;;;;;;;;5054045;27;45300;-89
2021/08/13 02:52:18;;;;;;;;;6.50;6.50;;;;;;;;5071604;28;45283;-90
2021/08/13 02:54:45;;;;;;;;;9.75;8.50;;;;;;;;5071237;28;45516;-90
2021/08/13 02:57:12;;;;;;;;;12.25;9.00;;;;;;;;5051921;28;47163;-89
2021/08/13 02:59:40;;;;;;;;;10.75;7.00;;;;;;;;5073803;28;45169;-89
2021/08/13 03:02:05;;;;;;;;;10.00;9.00;;;;;;;;5066251;27;45356;-90
2021/08/13 03:04:31;;;;;;;;;9.25;8.00;;;;;;;;5074575;27;45770;-89
2021/08/13 03:06:57;;;;;;;;;9.00;7.50;;;;;;;;5067610;28;46028;-90
2021/08/13 03:09:23;;;;;;;;;9.75;8.50;;;;;;;;5072113;27;45292;-90
2021/08/13 03:11:49;;;;;;;;;8.25;6.75;;;;;;;;5069062;28;45446;-88
2021/08/13 03:14:15;;;;;;;;;10.00;8.00;;;;;;;;5066938;28;48531;-89
2021/08/13 03:16:41;;;;;;;;;9.25;9.25;;;;;;;;5069370;27;46190;-90
2021/08/13 03:19:07;;;;;;;;;7.50;7.00;;;;;;;;5070643;28;45336;-90
2021/08/13 03:21:32;;;;;;;;;8.00;6.75;;;;;;;;5057887;28;45525;-90
2021/08/13 03:23:58;;;;;;;;;8.00;6.75;;;;;;;;5064600;27;45333;-90
2021/08/13 03:26:27;;;;;;;;;8.25;6.75;;;;;;;;5056215;28;46588;-89
2021/08/13 03:28:52;;;;;;;;;11.75;8.25;;;;;;;;5069983;28;46189;-90
2021/08/13 03:31:32;;;;;;;;;9.67;9.00;;;;;;;;5062063;27;46772;-89
2021/08/13 03:33:59;;;;;;;;;8.00;8.00;;;;;;;;5053857;28;45599;-90
2021/08/13 03:36:24;;;;;;;;;12.50;8.00;;;;;;;;5062148;28;45921;-90
2021/08/13 03:38:49;;;;;;;;;6.67;6.67;;;;;;;;5068837;28;45310;-89
2021/08/13 03:41:17;;;;;;;;;9.00;7.33;;;;;;;;5057105;28;45545;-90
2021/08/13 03:43:42;;;;;;;;;12.50;8.00;;;;;;;;5059669;28;45845;-89
2021/08/13 03:46:08;;;;;;;;;9.00;9.00;;;;;;;;5062396;28;45561;-89
2021/08/13 03:48:33;;;;;;;;;8.67;6.67;;;;;;;;5066922;28;45756;-89
2021/08/13 03:50:58;;;;;;;;;9.33;8.33;;;;;;;;5066823;28;45501;-89
2021/08/13 03:53:23;;;;;;;;;9.50;6.00;;;;;;;;5068019;28;45279;-89
2021/08/13 03:55:49;;;;;;;;;8.67;6.33;;;;;;;;5057101;28;45406;-89
2021/08/13 03:58:15;;;;;;;;;8.33;7.00;;;;;;;;5048520;28;45458;-89
2021/08/13 04:00:40;;;;;;;;;11.25;9.00;;;;;;;;5052500;28;45481;-89
2021/08/13 04:03:05;;;;;;;;;7.00;7.00;;;;;;;;5067906;28;45375;-89
2021/08/13 04:05:30;;;;;;;;;7.33;6.00;;;;;;;;5070605;28;45421;-90
2021/08/13 04:07:56;;;;;;;;;10.25;9.00;;;;;;;;5056299;28;45497;-89
2021/08/13 04:10:21;;;;;;;;;7.00;7.00;;;;;;;;5064533;28;45247;-89
2021/08/13 04:12:46;;;;;;;;;7.00;7.00;;;;;;;;5069854;28;45395;-89
2021/08/13 04:15:11;;;;;;;;;7.00;6.00;;;;;;;;5049093;28;47422;-89
2021/08/13 04:17:37;;;;;;;;;6.75;6.75;;;;;;;;5066078;27;47129;-90
2021/08/13 04:20:02;;;;;;;;;9.50;8.00;;;;;;;;5060705;28;45241;-90
2021/08/13 04:22:27;;;;;;;;;7.75;7.00;;;;;;;;5079504;27;45321;-89
2021/08/13 04:24:53;;;;;;;;;7.67;7.00;;;;;;;;5066419;28;45225;-89
2021/08/13 04:27:18;;;;;;;;;8.00;7.50;;;;;;;;5064006;28;45542;-89
2021/08/13 04:29:43;;;;;;;;;7.00;7.00;;;;;;;;5072441;28;45528;-90
2021/08/13 04:32:08;;;;;;;;;7.67;6.33;;;;;;;;5070101;27;45400;-89
2021/08/13 04:34:34;;;;;;;;;8.25;7.00;;;;;;;;5069676;28;45489;-89
2021/08/13 04:36:59;;;;;;;;;7.67;7.00;;;;;;;;5041630;28;45716;-88
2021/08/13 04:39:24;;;;;;;;;6.50;6.00;;;;;;;;5073966;27;45290;-89
2021/08/13 04:41:49;;;;;;;;;7.33;5.00;;;;;;;;5071797;28;45440;-89
2021/08/13 04:44:15;;;;;;;;;7.25;7.25;;;;;;;;5051635;28;47120;-89
2021/08/13 04:46:40;;;;;;;;;7.33;5.00;;;;;;;;5046974;28;45315;-89
2021/08/13 04:49:05;;;;;;;;;7.67;6.33;;;;;;;;5072122;27;45646;-90
2021/08/13 04:51:30;;;;;;;;;6.33;6.33;;;;;;;;5049894;28;45448;-90
2021/08/13 04:53:55;;;;;;;;;6.33;6.00;;;;;;;;5070762;28;45418;-89
2021/08/13 04:56:21;;;;;;;;;7.00;5.67;;;;;;;;5064590;27;45610;-90
2021/08/13 04:58:46;;;;;;;;;7.67;7.67;;;;;;;;5051116;28;45356;-90
2021/08/13 05:01:11;;;;;;;;;8.00;5.33;;;;;;;;5071771;27;45442;-90
2021/08/13 05:03:36;;;;;;;;;7.00;6.00;;;;;;;;5068647;28;45509;-90
2021/08/13 05:06:01;;;;;;;;;5.67;5.67;;;;;;;;5067934;28;45344;-90
2021/08/13 05:08:27;;;;;;;;;9.67;7.00;;;;;;;;5071218;27;45399;-90
2021/08/13 05:10:52;;;;;;;;;11.67;9.00;;;;;;;;5046408;28;45633;-90
2021/08/13 05:13:17;;;;;;;;;6.67;5.33;;;;;;;;5051205;28;47248;-90
2021/08/13 05:15:42;;;;;;;;;9.00;7.00;;;;;;;;5073275;27;45518;-89
2021/08/13 05:18:07;;;;;;;;;5.75;5.50;;;;;;;;5061677;28;45430;-90
2021/08/13 05:20:33;;;;;;;;;9.67;6.67;;;;;;;;5066043;28;45494;-90
2021/08/13 05:22:58;;;;;;;;;9.67;7.00;;;;;;;;5043168;28;47827;-90
2021/08/13 05:25:23;;;;;;;;;8.00;6.50;;;;;;;;5048098;28;45558;-90
2021/08/13 05:27:48;;;;;;;;;6.00;6.00;;;;;;;;5071338;28;45454;-90
2021/08/13 05:30:14;;;;;;;;;8.67;6.33;;;;;;;;5072417;28;45504;-90
2021/08/13 05:32:40;;;;;;;;;9.00;7.75;;;;;;;;5071183;27;46052;-90
2021/08/13 05:35:05;;;;;;;;;6.50;5.75;;;;;;;;5068467;28;45423;-90
2021/08/13 05:37:31;;;;;;;;;7.75;4.50;;;;;;;;5051967;28;45469;-89
2021/08/13 05:39:56;;;;;;;;;12.67;7.00;;;;;;;;5057145;28;45434;-88
2021/08/13 05:42:21;;;;;;;;;9.67;5.67;;;;;;;;5040724;28;46469;-89
2021/08/13 05:44:46;;;;;;;;;5.67;5.67;;;;;;;;5049044;27;45453;-90
2021/08/13 05:47:11;;;;;;;;;6.00;6.00;;;;;;;;5065077;28;45457;-91
2021/08/13 05:49:37;;;;;;;;;7.00;7.00;;;;;;;;5072933;27;45435;-90
2021/08/13 05:52:02;;;;;;;;;6.25;6.00;;;;;;;;5067001;28;45446;-89
2021/08/13 05:54:30;;;;;;;;;7.00;7.00;;;;;;;;5053207;28;46271;-90
2021/08/13 05:56:55;;;;;;;;;10.00;7.25;;;;;;;;5065122;28;45493;-90
2021/08/13 05:59:20;;;;;;;;;8.00;4.67;;;;;;;;5069359;27;45622;-89
2021/08/13 06:01:46;;;;;;;;;6.00;6.00;;;;;;;;5066050;28;45489;-89
2021/08/13 06:04:11;;;;;;;;;5.33;4.33;;;;;;;;5070328;28;45370;-89
2021/08/13 06:06:36;;;;;;;;;7.00;4.33;;;;;;;;5067334;28;45761;-89
2021/08/13 06:09:03;;;;;;;;;5.00;5.00;;;;;;;;5067857;28;46248;-88
2021/08/13 06:11:28;;;;;;;;;6.00;6.00;;;;;;;;5047168;28;46374;-89
2021/08/13 06:13:53;;;;;;;;;6.00;6.00;;;;;;;;5067385;28;45508;-90
2021/08/13 06:16:19;;;;;;;;;5.33;5.33;;;;;;;;5069229;27;45640;-89
2021/08/13 06:18:44;;;;;;;;;6.25;5.00;;;;;;;;5060060;28;45593;-88
2021/08/13 06:21:10;;;;;;;;;8.50;6.00;;;;;;;;5062565;28;46199;-89
2021/08/13 06:23:35;;;;;;;;;6.33;5.00;;;;;;;;5067173;28;45460;-89
2021/08/13 06:26:00;;;;;;;;;7.33;5.00;;;;;;;;5061872;27;45582;-88
2021/08/13 06:28:25;;;;;;;;;5.33;4.00;;;;;;;;5048038;28;45564;-88
2021/08/13 06:30:50;;;;;;;;;5.00;5.00;;;;;;;;5071016;28;45935;-88
2021/08/13 06:33:16;;;;;;;;;4.67;4.67;;;;;;;;5073820;27;45382;-87
2021/08/13 06:35:41;;;;;;;;;5.00;5.00;;;;;;;;5068514;28;45307;-89
2021/08/13 06:38:07;;;;;;;;;4.50;4.50;;;;;;;;5045228;28;45648;-87
2021/08/13 06:40:33;;;;;;;;;6.50;4.00;;;;;;;;5062688;28;46056;-89
2021/08/13 06:42:58;;;;;;;;;5.00;4.25;;;;;;;;5069344;28;45466;-88
2021/08/13 06:45:23;;;;;;;;;6.00;6.00;;;;;;;;5070432;28;45268;-88
2021/08/13 06:47:49;;;;;;;;;5.25;5.00;;;;;;;;5061095;28;45895;-88
2021/08/13 06:50:14;;;;;;;;;5.25;4.25;;;;;;;;5068776;27;45485;-88
2021/08/13 06:52:39;;;;;;;;;4.00;3.00;;;;;;;;5053574;28;45751;-88
2021/08/13 06:55:05;;;;;;;;;9.00;6.33;;;;;;;;5064120;27;45299;-88
2021/08/13 06:57:30;;;;;;;;;7.25;4.75;;;;;;;;5064907;28;45416;-88
2021/08/13 06:59:56;;;;;;;;;5.50;5.00;;;;;;;;5053556;28;48230;-88
2021/08/13 07:02:21;;;;;;;;;4.33;4.00;;;;;;;;5046688;28;45764;-88
2021/08/13 07:04:46;;;;;;;;;5.33;3.00;;;;;;;;5069945;28;45718;-88
2021/08/13 07:07:13;;;;;;;;;4.00;4.00;;;;;;;;5068417;28;45506;-88
2021/08/13 07:09:38;;;;;;;;;4.00;4.00;;;;;;;;5069407;27;45481;-87
2021/08/13 07:12:04;;;;;;;;;6.00;6.00;;;;;;;;5062438;27;45464;-90
2021/08/13 07:14:29;;;;;;;;;7.00;4.25;;;;;;;;5069028;28;45478;-89
2021/08/13 07:16:54;;;;;;;;;3.33;3.33;;;;;;;;5067773;27;45495;-93
2021/08/13 07:19:19;;;;;;;;;5.00;3.00;;;;;;;;5069746;27;45465;-88
2021/08/13 07:21:45;;;;;;;;;5.00;5.00;;;;;;;;5061820;27;45497;-89
2021/08/13 07:24:10;;;;;;;;;4.00;4.00;;;;;;;;5071015;27;45522;-89
2021/08/13 07:26:35;;;;;;;;;4.00;4.00;;;;;;;;5059414;28;45324;-86
2021/08/13 07:29:01;;;;;;;;;5.00;5.00;;;;;;;;5062962;27;46004;-87
2021/08/13 07:31:26;;;;;;;;;4.00;3.00;;;;;;;;5059302;28;46428;-87
2021/08/13 07:33:51;;;;;;;;;6.00;3.33;;;;;;;;5062894;27;45502;-90
2021/08/13 07:36:17;;;;;;;;;4.33;4.00;;;;;;;;5059008;28;45529;-87
2021/08/13 07:38:42;;;;;;;;;4.00;3.00;;;;;;;;5064363;28;45346;-87
2021/08/13 07:41:08;;;;;;;;;5.00;3.00;;;;;;;;5059969;28;45432;-83
2021/08/13 07:43:33;;;;;;;;;5.50;3.00;;;;;;;;5039010;28;45519;-85
2021/08/13 07:45:59;;;;;;;;;4.75;4.00;;;;;;;;5061563;28;45415;-83
2021/08/13 07:48:24;;;;;;;;;4.50;4.50;;;;;;;;5054881;28;48190;-84
2021/08/13 07:50:49;;;;;;;;;3.67;3.33;;;;;;;;5054097;27;45423;-78
2021/08/13 07:53:14;;;;;;;;;5.00;3.00;;;;;;;;5046117;28;45438;-79
2021/08/13 07:55:39;;;;;;;;;4.00;4.00;;;;;;;;5060849;27;45555;-81
2021/08/13 07:58:05;;;;;;;;;4.67;3.33;;;;;;;;5049213;28;48714;-80
2021/08/13 08:00:30;;;;;;;;;7.67;3.67;;;;;;;;5058629;28;45531;-89
2021/08/13 08:02:56;;;;;;;;;4.25;3.25;;;;;;;;5065111;27;45464;-80
2021/08/13 08:05:22;;;;;;;;;5.25;4.25;;;;;;;;5059854;28;46265;-87
2021/08/13 08:07:47;;;;;;;;;3.25;3.25;;;;;;;;5044789;28;47948;-83
2021/08/13 08:10:13;;;;;;;;;5.00;3.00;;;;;;;;5070476;28;45413;-83
2021/08/13 08:12:38;;;;;;;;;4.00;4.00;;;;;;;;5069392;28;45387;-82
2021/08/13 08:15:03;;;;;;;;;5.50;4.25;;;;;;;;5049694;28;45459;-83
2021/08/13 08:17:29;;;;;;;;;5.50;4.25;;;;;;;;5065694;28;46648;-82
2021/08/13 08:19:54;;;;;;;;;6.00;3.50;;;;;;;;5064432;28;45706;-83
2021/08/13 08:22:20;;;;;;;;;4.00;4.00;;;;;;;;5066917;28;45537;-83
2021/08/13 08:24:45;;;;;;;;;4.33;3.00;;;;;;;;5067207;28;45538;-83
2021/08/13 08:27:10;;;;;;;;;5.00;3.00;;;;;;;;5060311;28;45555;-83
2021/08/13 08:29:35;;;;;;;;;4.33;4.33;;;;;;;;5070396;28;45517;-83
2021/08/13 08:32:00;;;;;;;;;6.67;3.33;;;;;;;;5046398;28;45426;-82
2021/08/13 08:34:26;;;;;;;;;5.00;2.33;;;;;;;;5048360;28;45431;-83
2021/08/13 08:36:51;;;;;;;;;4.67;2.33;;;;;;;;5049875;28;48498;-83
2021/08/13 08:39:16;;;;;;;;;3.00;3.00;;;;;;;;5066669;28;45250;-82
2021/08/13 08:41:42;;;;;;;;;4.00;4.00;;;;;;;;5048182;28;45370;-83
2021/08/13 08:44:07;;;;;;;;;3.25;3.25;;;;;;;;5064151;28;45373;-83
2021/08/13 08:46:33;;;;;;;;;6.00;3.00;;;;;;;;5064803;28;46279;-83
2021/08/13 08:48:58;;;;;;;;;7.50;4.00;;;;;;;;5069167;27;45378;-83
2021/08/13 08:51:24;;;;;;;;;4.25;4.25;;;;;;;;5065359;28;45274;-83
2021/08/13 08:53:50;;;;;;;;;4.00;3.00;;;;;;;;5063941;28;45940;-83
2021/08/13 08:56:17;;;;;;;;;4.50;3.00;;;;;;;;5064250;27;45936;-82
2021/08/13 08:58:44;;;;;;;;;3.00;2.00;;;;;;;;5064490;28;45889;-82
2021/08/13 09:01:11;;;;;;;;;4.75;3.00;;;;;;;;5048931;28;45450;-83
2021/08/13 09:03:36;;;;;;;;;4.25;2.75;;;;;;;;5071378;27;45355;-83
2021/08/13 09:06:03;;;;;;;;;3.00;3.00;;;;;;;;5070152;28;45461;-82
2021/08/13 09:08:29;;;;;;;;;2.00;2.00;;;;;;;;5062078;27;45434;-83
2021/08/13 09:10:54;;;;;;;;;3.00;3.00;;;;;;;;5063767;27;45346;-83
2021/08/13 09:13:23;;;;;;;;;4.50;3.00;;;;;;;;5069202;28;45711;-82
2021/08/13 09:15:48;;;;;;;;;2.25;2.25;;;;;;;;5070421;28;46008;-83
2021/08/13 09:18:18;;;;;;;;;4.00;2.00;;;;;;;;5069543;28;45305;-82
2021/08/13 09:20:43;;;;;;;;;4.00;3.00;;;;;;;;5052497;28;45798;-83
2021/08/13 09:23:10;;;;;;;;;5.33;3.33;;;;;;;;5063187;27;45316;-82
2021/08/13 09:25:35;;;;;;;;;3.00;3.00;;;;;;;;5050008;28;46208;-82
2021/08/13 09:28:01;;;;;;;;;3.00;2.00;;;;;;;;5064757;28;45456;-82
2021/08/13 09:30:27;;;;;;;;;3.00;3.00;;;;;;;;5070902;27;45410;-83
2021/08/13 09:32:57;;;;;;;;;4.50;3.25;;;;;;;;5052822;28;45676;-83
2021/08/13 09:35:38;;;;;;;;;4.00;4.00;;;;;;;;5066848;28;45564;-83
2021/08/13 09:38:11;;;;;;;;;3.75;3.50;;;;;;;;5067050;27;45679;-84
2021/08/13 09:40:38;;;;;;;;;3.00;3.00;;;;;;;;5070416;27;45478;-82
2021/08/13 09:43:03;;;;;;;;;3.00;3.00;;;;;;;;5070865;27;45404;-83
2021/08/13 09:45:28;;;;;;;;;3.50;2.75;;;;;;;;5067447;28;45695;-83
2021/08/13 09:47:53;;;;;;;;;4.75;3.00;;;;;;;;5053938;28;45835;-84
2021/08/13 09:50:32;;;;;;;;;3.00;3.00;;;;;;;;5066310;27;45590;-83
2021/08/13 09:53:13;;;;;;;;;3.00;3.00;;;;;;;;5062194;28;45329;-83
2021/08/13 09:55:42;;;;;;;;;4.50;3.75;;;;;;;;5067140;28;45720;-83
2021/08/13 09:58:11;;;;;;;;;5.00;2.75;;;;;;;;5061458;28;45953;-83
2021/08/13 10:00:45;;;;;;;;;5.25;4.00;;;;;;;;5050497;28;45432;-82
2021/08/13 10:03:11;;;;;;;;;5.75;4.00;;;;;;;;5070923;28;45427;-82
2021/08/13 10:05:37;;;;;;;;;5.25;3.50;;;;;;;;5051089;28;48094;-83
2021/08/13 10:08:03;;;;;;;;;3.00;3.00;;;;;;;;5049015;28;45310;-83
2021/08/13 10:10:29;;;;;;;;;4.50;3.00;;;;;;;;5068846;28;45534;-83
2021/08/13 10:12:55;;;;;;;;;4.75;4.00;;;;;;;;5064987;28;45352;-83
2021/08/13 10:15:29;;;;;;;;;4.50;4.50;;;;;;;;5048892;28;47480;-83
2021/08/13 10:17:56;;;;;;;;;4.00;4.00;;;;;;;;5072408;27;45607;-84
2021/08/13 10:20:22;;;;;;;;;4.50;4.50;;;;;;;;5069313;27;45462;-83
2021/08/13 10:22:48;;;;;;;;;4.75;4.75;;;;;;;;5065293;28;45525;-82
2021/08/13 10:25:14;;;;;;;;;4.25;3.25;;;;;;;;5068954;28;46382;-84
2021/08/13 10:27:40;;;;;;;;;4.75;4.50;;;;;;;;5065401;27;45406;-83
2021/08/13 10:30:06;;;;;;;;;6.75;5.00;;;;;;;;5070847;27;45312;-86
2021/08/13 10:32:32;;;;;;;;;6.25;4.75;;;;;;;;5064682;28;45670;-89
2021/08/13 10:34:58;;;;;;;;;6.00;4.75;;;;;;;;5048270;28;48724;-87
2021/08/13 10:37:26;;;;;;;;;6.00;5.00;;;;;;;;5064911;28;45562;-88
2021/08/13 10:39:54;;;;;;;;;5.00;5.00;;;;;;;;5050558;27;45400;-88
2021/08/13 10:42:23;;;;;;;;;5.00;4.50;;;;;;;;5050752;28;45638;-87
2021/08/13 10:44:52;;;;;;;;;6.75;5.75;;;;;;;;5070761;28;45555;-87
2021/08/13 10:47:20;;;;;;;;;4.75;4.75;;;;;;;;5055640;28;45541;-88
2021/08/13 10:49:47;;;;;;;;;7.75;7.75;;;;;;;;5063023;28;45505;-87
2021/08/13 10:52:12;;;;;;;;;7.50;7.50;;;;;;;;5062230;28;45566;-88
2021/08/13 10:54:40;;;;;;;;;5.00;5.00;;;;;;;;5068249;28;46143;-88
2021/08/13 10:57:06;;;;;;;;;6.00;5.75;;;;;;;;5036847;28;45960;-88
2021/08/13 10:59:55;;;;;;;;;6.25;5.00;;;;;;;;5047268;28;45454;-86
2021/08/13 11:02:20;;;;;;;;;5.25;4.25;;;;;;;;5038835;28;45632;-83
2021/08/13 11:04:47;;;;;;;;;7.25;7.00;;;;;;;;5061703;27;48943;-83
2021/08/13 11:07:13;;;;;;;;;5.50;5.50;;;;;;;;5063955;28;45394;-86
2021/08/13 11:09:39;;;;;;;;;6.50;6.00;;;;;;;;5053206;28;45511;-87
2021/08/13 11:12:05;;;;;;;;;8.00;6.25;;;;;;;;5071332;27;45535;-88
2021/08/13 11:14:32;;;;;;;;;7.25;7.00;;;;;;;;5051094;28;47019;-88
2021/08/13 11:16:57;;;;;;;;;7.50;6.25;;;;;;;;5031482;28;46145;-87
2021/08/13 11:19:23;;;;;;;;;8.00;8.00;;;;;;;;5053282;27;45425;-88
2021/08/13 11:21:49;;;;;;;;;10.50;8.75;;;;;;;;5076202;27;45226;-88
2021/08/13 11:24:16;;;;;;;;;7.00;7.00;;;;;;;;5059243;27;46736;-82
2021/08/13 11:26:47;;;;;;;;;7.00;7.00;;;;;;;;5058670;28;45709;-86
2021/08/13 11:29:27;;;;;;;;;8.00;8.00;;;;;;;;5063168;28;45698;-90
2021/08/13 11:31:52;;;;;;;;;7.00;7.00;;;;;;;;5060607;27;45585;-88
2021/08/13 11:34:36;;;;;;;;;8.50;7.75;;;;;;;;5063549;28;46447;-88
2021/08/13 11:37:01;;;;;;;;;11.25;8.75;;;;;;;;5055317;28;45617;-83
2021/08/13 11:39:37;;;;;;;;;5.50;5.50;;;;;;;;5057865;28;45732;-89
2021/08/13 11:42:04;;;;;;;;;6.50;5.25;;;;;;;;5040385;28;47293;-84
2021/08/13 11:44:30;;;;;;;;;4.50;4.50;;;;;;;;5059049;27;46199;-88
2021/08/13 11:46:56;;;;;;;;;7.50;4.50;;;;;;;;5042674;28;45993;-88
2021/08/13 11:49:22;;;;;;;;;6.00;6.00;;;;;;;;5058455;27;45582;-88
2021/08/13 11:51:47;;;;;;;;;9.00;6.75;;;;;;;;5074733;27;45355;-89
2021/08/13 11:54:26;;;;;;;;;7.00;7.00;;;;;;;;5061806;28;46174;-88
2021/08/13 11:56:51;;;;;;;;;4.75;4.75;;;;;;;;5064241;27;45710;-91
2021/08/13 11:59:16;;;;;;;;;6.00;6.00;;;;;;;;5059555;27;45491;-88
2021/08/13 12:01:52;;;;;;;;;6.33;6.33;;;;;;;;5059712;27;45507;-88
2021/08/13 12:04:18;;;;;;;;;7.00;6.00;;;;;;;;5061688;27;46126;-90
2021/08/13 12:06:59;;;;;;;;;6.00;5.25;;;;;;;;5060529;27;45682;-89
2021/08/13 12:09:28;;;;;;;;;6.50;6.50;;;;;;;;5070832;28;45401;-90
2021/08/13 12:11:53;;;;;;;;;8.00;6.00;;;;;;;;5052678;28;45497;-87
2021/08/13 12:14:18;;;;;;;;;9.33;8.00;;;;;;;;5047298;28;47518;-89
2021/08/13 12:16:50;;;;;;;;;6.33;6.33;;;;;;;;5068504;27;45767;-89
2021/08/13 12:19:16;;;;;;;;;6.50;6.50;;;;;;;;5064306;28;45715;-88
2021/08/13 12:21:58;;;;;;;;;6.00;6.00;;;;;;;;5071571;27;45554;-89
2021/08/13 12:24:34;;;;;;;;;6.00;6.00;;;;;;;;5058537;28;46688;-90
2021/08/13 12:27:01;;;;;;;;;8.25;7.00;;;;;;;;5049338;28;46144;-89
2021/08/13 12:29:27;;;;;;;;;8.75;5.25;;;;;;;;5047062;28;45833;-88
2021/08/13 12:31:54;;;;;;;;;7.25;6.75;;;;;;;;5063263;27;45739;-88
2021/08/13 12:34:23;;;;;;;;;7.25;6.00;;;;;;;;5074024;27;45493;-90
2021/08/13 12:37:06;;;;;;;;;8.75;7.75;;;;;;;;5069039;27;45658;-91
2021/08/13 12:39:32;;;;;;;;;9.25;7.25;;;;;;;;5067932;27;45608;-90
2021/08/13 12:41:58;;;;;;;;;7.00;6.25;;;;;;;;5066393;28;46670;-91
2021/08/13 12:44:23;;;;;;;;;6.25;6.00;;;;;;;;5066972;27;52747;-89
2021/08/13 12:46:49;;;;;;;;;8.00;6.00;;;;;;;;5063731;27;45554;-89
2021/08/13 12:49:15;;;;;;;;;5.75;5.75;;;;;;;;5076243;27;45341;-90
2021/08/13 12:51:40;;;;;;;;;7.50;6.75;;;;;;;;5071138;27;45618;-90
2021/08/13 12:54:24;;;;;;;;;8.75;8.75;;;;;;;;5072657;27;46767;-88
2021/08/13 12:56:58;;;;;;;;;5.00;5.00;;;;;;;;5068802;27;45620;-88
2021/08/13 12:59:34;;;;;;;;;9.50;7.75;;;;;;;;5067206;27;45558;-87
2021/08/13 13:02:00;;;;;;;;;7.75;5.75;;;;;;;;5050907;28;46472;-91
2021/08/13 13:04:38;;;;;;;;;6.00;6.00;;;;;;;;5069260;27;46464;-91
2021/08/13 13:07:04;;;;;;;;;7.75;7.50;;;;;;;;5073105;27;45623;-90
2021/08/13 13:09:30;;;;;;;;;5.75;5.75;;;;;;;;5068741;27;45699;-88
2021/08/13 13:12:14;;;;;;;;;6.00;5.00;;;;;;;;5060594;28;45346;-90
2021/08/13 13:14:39;;;;;;;;;10.50;6.25;;;;;;;;5054086;28;48721;-90
2021/08/13 13:17:05;;;;;;;;;7.00;6.00;;;;;;;;5050257;27;45585;-88
2021/08/13 13:19:30;;;;;;;;;6.00;6.00;;;;;;;;5052658;28;45503;-89
2021/08/13 13:22:13;;;;;;;;;6.00;6.00;;;;;;;;5076323;28;46160;-88
2021/08/13 13:24:38;;;;;;;;;6.50;6.00;;;;;;;;5052370;27;45676;-89
2021/08/13 13:27:04;;;;;;;;;6.67;6.67;;;;;;;;5063015;28;45520;-90
2021/08/13 13:29:33;;;;;;;;;5.75;5.75;;;;;;;;5074104;28;45403;-90
2021/08/13 13:31:59;;;;;;;;;6.50;6.50;;;;;;;;5068045;28;45367;-89
2021/08/13 13:34:24;;;;;;;;;8.25;5.75;;;;;;;;5065238;28;45418;-87
2021/08/13 13:36:49;;;;;;;;;5.00;5.00;;;;;;;;5060314;27;45580;-87
2021/08/13 13:39:15;;;;;;;;;5.00;5.00;;;;;;;;5050768;28;47412;-87
2021/08/13 13:41:41;;;;;;;;;6.50;6.00;;;;;;;;5054127;28;45487;-88
2021/08/13 13:44:06;;;;;;;;;5.67;5.67;;;;;;;;5064204;28;45508;-85
2021/08/13 13:46:31;;;;;;;;;9.33;6.00;;;;;;;;5067401;28;45804;-86
2021/08/13 13:48:56;;;;;;;;;9.33;6.67;;;;;;;;5069301;27;45370;-88
2021/08/13 13:51:21;;;;;;;;;6.00;6.00;;;;;;;;5038333;28;45535;-89
2021/08/13 13:53:47;;;;;;;;;8.75;8.00;;;;;;;;5068744;27;46453;-84
2021/08/13 13:56:12;;;;;;;;;7.00;6.00;;;;;;;;5063784;27;45579;-91
2021/08/13 13:58:38;;;;;;;;;7.75;7.75;;;;;;;;5066665;27;45734;-85
2021/08/13 14:01:03;;;;;;;;;7.50;6.25;;;;;;;;5044517;28;45577;-82
2021/08/13 14:03:29;;;;;;;;;7.00;7.00;;;;;;;;5064887;28;45406;-84
2021/08/13 14:05:54;;;;;;;;;6.00;6.00;;;;;;;;5067658;28;45832;-87
2021/08/13 14:08:19;;;;;;;;;5.75;5.75;;;;;;;;5044554;28;45532;-84
2021/08/13 14:10:44;;;;;;;;;6.33;6.33;;;;;;;;5056943;28;49404;-84
2021/08/13 14:13:10;;;;;;;;;8.00;5.00;;;;;;;;5064516;27;45534;-84
2021/08/13 14:15:36;;;;;;;;;5.00;5.00;;;;;;;;5041868;28;45351;-85
2021/08/13 14:18:01;;;;;;;;;8.25;5.75;;;;;;;;5066231;27;45565;-85
2021/08/13 14:20:27;;;;;;;;;5.75;5.75;;;;;;;;5069190;27;45332;-85
2021/08/13 14:22:53;;;;;;;;;6.75;6.75;;;;;;;;5053638;27;47142;-86
2021/08/13 14:25:23;;;;;;;;;6.00;5.75;;;;;;;;5060561;27;45813;-85
2021/08/13 14:27:48;;;;;;;;;6.25;5.25;;;;;;;;5065175;27;45782;-83
2021/08/13 14:30:15;;;;;;;;;9.75;7.25;;;;;;;;5059970;28;45570;-84
2021/08/13 14:32:40;;;;;;;;;5.75;5.75;;;;;;;;5039935;28;48531;-83
2021/08/13 14:35:06;;;;;;;;;5.00;5.00;;;;;;;;5059532;27;45622;-85
2021/08/13 14:37:32;;;;;;;;;6.00;4.25;;;;;;;;5070514;28;45745;-86